Winnemucca Colony, Nevada
Current Conditions -  °F | °C
As of 12:56 AM on Thursday 23 Oct 2014 (Local Time) from KWMC Reporting Station
Clear Clear  
Wind Chill: 46°   Ceiling: Unl
Heat Index: 48°   Visibility: 10mi
Dew Point: 28°   Wind: 5mph
Humidity: 46%   Direction: 130°SE
Pressure: 30.06"   Gusts: NA
Location:  41.1353°N, 118.186°W
Report Text: KWMC 230756Z AUTO 13004KT 10SM CLR 09/M02 A3006 RMK AO2 SLP157 T00891022 402001050
Loading
Personal Weather Stations






























Interactive Weather Map
Tropical Storm Tracking
New forecast layout! Learn more

10-Day Weather Forecast

Advertisements
Track Severe Weather on mobile